KDLH/DLH METAR and TAF weather

Enter ICAO airport designator
Station Type Date Time Source
KDLH METAR 2021/08/04 16:55 UTC NOAA

KDLH 041655Z 24010KT 8SM CLR 28/17 A3005 RMK AO2 SLP172 T02780167


Station Type Date Time Source
KDLH Decoded METAR 2021/08/04 16:55 UTC NOAA

Duluth, Duluth International Airport, MN, United States (KDLH) 46-50-34N 092-13-34W 435M
Aug 04, 2021 - 12:55 PM EDT / 2021.08.04 1655 UTC
Wind: from the WSW (240 degrees) at 12 MPH (10 KT):0
Visibility: 8 mile(s):0
Sky conditions: clear
Temperature: 82.0 F (27.8 C)
Dew Point: 62.1 F (16.7 C)
Relative Humidity: 50%
Pressure (altimeter): 30.05 in. Hg (1017 hPa)
ob: KDLH 041655Z 24010KT 8SM CLR 28/17 A3005 RMK AO2 SLP172 T02780167
cycle: 17

Station Type Date Time Source
KDLH TAF 2021/08/04 18:39 UTC NOAA

TAF KDLH 041735Z 0418/0518 24011KT 6SM FU FEW250
FM050000 20008KT P6SM SCT250
FM051000 21007G15KT 6SM -SHRA VCTS SCT060CB BKN090
FM051500 20009G17KT 6SM -SHRA VCTS BKN040CB

Example: see airport list